Time;durP1;ratioP1;P1;durP2;ratioP2;P2;SDS_P1;SDS_P2;PMS_P1;PMS_P2;Temp;Humidity;BMP_temperature;BMP_pressure;BME280_temperature;BME280_humidity;BME280_pressure;Samples;Min_cycle;Max_cycle;Signal;HPM_P1;HPM_P2
2021/11/19 00:00:49;;;;;;;11.18;4.00;;;9.50;96.00;;;;;;5013202;28;20030;-49
2021/11/19 00:03:15;;;;;;;7.45;3.45;;;9.50;96.00;;;;;;4999803;28;20041;-48
2021/11/19 00:05:42;;;;;;;5.82;3.35;;;9.50;96.00;;;;;;5012686;28;20449;-48
2021/11/19 00:08:09;;;;;;;14.30;4.75;;;9.50;96.00;;;;;;5028294;28;20431;-48
2021/11/19 00:10:35;;;;;;;7.43;3.97;;;9.50;96.00;;;;;;5032596;28;20101;-48
2021/11/19 00:13:01;;;;;;;12.13;4.93;;;9.50;96.00;;;;;;5032846;28;20446;-49
2021/11/19 00:15:27;;;;;;;10.82;3.95;;;9.50;96.00;;;;;;5032396;28;20583;-49
2021/11/19 00:17:52;;;;;;;8.95;3.63;;;9.50;96.00;;;;;;5032955;28;20365;-49
2021/11/19 00:20:21;;;;;;;9.48;3.80;;;9.50;95.90;;;;;;5033074;28;20104;-49
2021/11/19 00:22:47;;;;;;;7.47;3.65;;;9.50;95.90;;;;;;5019663;28;20092;-48
2021/11/19 00:25:13;;;;;;;7.85;3.90;;;9.50;95.90;;;;;;5012237;28;20018;-49
2021/11/19 00:27:39;;;;;;;10.70;4.07;;;9.50;95.90;;;;;;5012873;28;20108;-49
2021/11/19 00:30:09;;;;;;;8.00;3.85;;;9.50;95.90;;;;;;5013336;28;20117;-48
2021/11/19 00:32:35;;;;;;;6.72;4.05;;;9.50;95.90;;;;;;5012997;28;20489;-49
2021/11/19 00:35:02;;;;;;;12.40;4.47;;;9.50;95.90;;;;;;5012228;28;20042;-49
2021/11/19 00:37:28;;;;;;;13.43;4.47;;;9.50;95.90;;;;;;5020604;28;20457;-49
2021/11/19 00:39:54;;;;;;;8.60;4.03;;;9.50;95.90;;;;;;5032254;28;20038;-49
2021/11/19 00:42:19;;;;;;;8.32;3.95;;;9.50;96.20;;;;;;5032605;28;20029;-48
2021/11/19 00:44:45;;;;;;;6.43;3.67;;;9.50;95.90;;;;;;5032361;28;20687;-49
2021/11/19 00:47:11;;;;;;;10.07;3.65;;;9.50;95.80;;;;;;5031326;28;20105;-49
2021/11/19 00:49:38;;;;;;;6.40;3.25;;;9.50;95.80;;;;;;5032226;28;20037;-48
2021/11/19 00:52:05;;;;;;;7.75;3.75;;;9.50;95.80;;;;;;5027627;28;20030;-49
2021/11/19 00:54:31;;;;;;;6.35;3.35;;;9.50;95.80;;;;;;5011951;28;20026;-49
2021/11/19 00:57:01;;;;;;;6.13;3.25;;;9.50;95.80;;;;;;5011473;28;20344;-48
2021/11/19 00:59:29;;;;;;;;;;;9.50;95.80;;;;;;5012661;28;20092;-49
2021/11/19 01:02:00;;;;;;;12.10;3.20;;;9.50;95.80;;;;;;5012202;28;19960;-49
2021/11/19 01:04:26;;;;;;;10.20;3.08;;;9.50;95.80;;;;;;5012578;28;20042;-49
2021/11/19 01:06:52;;;;;;;8.57;3.95;;;9.50;95.80;;;;;;5012950;28;20326;-49
2021/11/19 01:09:25;;;;;;;10.45;4.28;;;9.50;95.70;;;;;;5031357;28;20109;-48
2021/11/19 01:11:53;;;;;;;7.72;3.45;;;9.50;95.70;;;;;;5032129;28;20515;-48
2021/11/19 01:14:33;;;;;;;6.40;3.88;;;9.50;95.70;;;;;;5031604;28;20104;-49
2021/11/19 01:17:03;;;;;;;5.82;3.35;;;9.50;95.70;;;;;;5031348;28;20396;-49
2021/11/19 01:19:37;;;;;;;5.75;3.50;;;9.50;95.70;;;;;;5031566;28;20364;-49
2021/11/19 01:22:11;;;;;;;11.30;4.05;;;9.40;95.70;;;;;;5028898;28;20064;-49
2021/11/19 01:24:38;;;;;;;18.38;4.60;;;9.40;95.70;;;;;;5011790;28;20381;-49
2021/11/19 01:27:04;;;;;;;7.90;4.00;;;9.40;95.60;;;;;;5011062;28;20029;-48
2021/11/19 01:29:30;;;;;;;7.18;4.65;;;9.40;95.70;;;;;;5011909;28;20061;-49
2021/11/19 01:32:04;;;;;;;7.80;4.80;;;9.40;95.70;;;;;;5012171;28;20022;-49
2021/11/19 01:34:30;;;;;;;9.27;4.50;;;9.40;95.60;;;;;;5012111;28;20614;-48
2021/11/19 01:36:56;;;;;;;9.55;3.67;;;9.50;95.70;;;;;;5011137;28;20532;-49
2021/11/19 01:39:25;;;;;;;9.20;3.70;;;9.40;95.60;;;;;;5030766;28;20460;-49
2021/11/19 01:41:58;;;;;;;9.15;4.38;;;9.40;95.60;;;;;;5031212;28;20376;-49
2021/11/19 01:44:37;;;;;;;13.15;5.30;;;9.40;95.60;;;;;;5031640;28;20053;-49
2021/11/19 01:47:07;;;;;;;14.33;5.43;;;9.40;95.60;;;;;;5030540;28;20025;-49
2021/11/19 01:49:34;;;;;;;7.78;4.60;;;9.40;95.60;;;;;;5031083;28;20326;-49
2021/11/19 01:52:01;;;;;;;7.22;4.38;;;9.40;95.60;;;;;;5031117;28;20037;-49
2021/11/19 01:54:31;;;;;;;11.93;5.07;;;9.40;95.60;;;;;;5011636;28;20038;-49
2021/11/19 01:57:14;;;;;;;14.40;5.68;;;9.40;95.60;;;;;;5010805;28;20156;-48
2021/11/19 01:59:47;;;;;;;14.63;4.85;;;9.50;95.60;;;;;;5011304;28;20137;-49
2021/11/19 02:02:21;;;;;;;9.75;4.68;;;9.40;95.60;;;;;;5011035;28;20034;-49
2021/11/19 02:04:55;;;;;;;11.82;5.38;;;9.40;95.60;;;;;;5011064;28;20388;-48
2021/11/19 02:07:32;;;;;;;8.60;4.93;;;9.40;95.50;;;;;;5012240;28;20057;-48
2021/11/19 02:10:09;;;;;;;9.73;4.95;;;9.40;95.50;;;;;;5031214;28;20365;-49
2021/11/19 02:12:38;;;;;;;10.45;4.35;;;9.40;95.50;;;;;;5030792;28;20028;-48
2021/11/19 02:15:11;;;;;;;9.30;4.63;;;9.40;95.50;;;;;;5030090;28;20026;-49
2021/11/19 02:17:37;;;;;;;13.95;4.95;;;9.40;95.50;;;;;;5031010;28;20116;-49
2021/11/19 02:20:14;;;;;;;10.38;4.90;;;9.40;95.50;;;;;;5030704;28;20033;-49
2021/11/19 02:22:50;;;;;;;11.32;5.07;;;9.40;95.50;;;;;;5026867;28;20049;-48
2021/11/19 02:25:31;;;;;;;7.10;4.30;;;9.40;95.50;;;;;;5010000;28;20030;-48
2021/11/19 02:28:00;;;;;;;5.72;3.33;;;9.40;95.50;;;;;;5011645;28;20018;-48
2021/11/19 02:30:35;;;;;;;7.20;4.10;;;9.40;95.50;;;;;;5010885;28;20037;-49
2021/11/19 02:33:04;;;;;;;7.22;3.90;;;9.40;95.50;;;;;;5013412;28;20034;-49
2021/11/19 02:35:57;;;;;;;6.82;3.97;;;9.40;95.50;;;;;;5013889;28;20057;-48
2021/11/19 02:38:31;;;;;;;8.48;4.28;;;9.40;95.40;;;;;;5022566;28;20025;-49
2021/11/19 02:40:58;;;;;;;10.52;4.32;;;9.40;95.40;;;;;;5034529;28;20051;-49
2021/11/19 02:43:43;;;;;;;6.97;4.07;;;9.40;95.40;;;;;;5016523;28;20100;-49
2021/11/19 02:46:18;;;;;;;10.45;4.45;;;9.40;95.40;;;;;;5014191;28;20037;-49
2021/11/19 02:48:45;;;;;;;8.68;3.88;;;9.40;95.40;;;;;;5015067;28;20026;-48
2021/11/19 02:51:12;;;;;;;5.13;3.30;;;9.40;95.40;;;;;;5014917;28;20026;-49
2021/11/19 02:53:38;;;;;;;8.63;3.72;;;9.40;95.40;;;;;;5022648;28;20411;-48
2021/11/19 02:56:05;;;;;;;5.97;3.90;;;9.40;95.40;;;;;;5033495;28;20053;-49
2021/11/19 02:58:35;;;;;;;7.50;4.07;;;9.40;95.30;;;;;;5034425;28;20036;-49
2021/11/19 03:01:24;;;;;;;7.72;3.92;;;9.40;95.30;;;;;;5034342;28;20032;-48
2021/11/19 03:04:05;;;;;;;9.25;4.43;;;9.40;95.30;;;;;;5034022;28;20036;-49
2021/11/19 03:06:34;;;;;;;6.80;3.88;;;9.30;95.30;;;;;;5033859;28;20083;-49
2021/11/19 03:08:59;;;;;;;8.55;4.05;;;9.30;95.30;;;;;;5033361;28;20029;-49
2021/11/19 03:11:25;;;;;;;7.80;3.95;;;9.30;95.30;;;;;;5033762;28;20029;-49
2021/11/19 03:13:51;;;;;;;9.23;4.20;;;9.30;95.30;;;;;;5034232;28;20071;-49
2021/11/19 03:16:17;;;;;;;6.43;4.70;;;9.30;95.30;;;;;;5033061;28;20029;-49
2021/11/19 03:18:44;;;;;;;10.23;4.10;;;9.30;95.30;;;;;;5034098;28;20026;-48
2021/11/19 03:21:16;;;;;;;11.65;5.00;;;9.30;95.30;;;;;;5033807;28;20708;-49
2021/11/19 03:23:43;;;;;;;11.85;4.50;;;9.30;95.30;;;;;;5025570;28;20069;-49
2021/11/19 03:26:10;;;;;;;8.13;3.80;;;9.30;95.20;;;;;;5013604;28;20022;-48
2021/11/19 03:28:36;;;;;;;9.93;4.72;;;9.40;95.20;;;;;;5014085;28;20026;-49
2021/11/19 03:31:06;;;;;;;9.25;4.20;;;9.30;95.20;;;;;;5013605;28;20034;-49
2021/11/19 03:33:38;;;;;;;7.97;4.22;;;9.30;95.20;;;;;;5014363;28;20029;-49
2021/11/19 03:36:05;;;;;;;7.68;3.95;;;9.30;95.20;;;;;;5013470;28;20100;-49
2021/11/19 03:38:33;;;;;;;9.07;4.07;;;9.30;95.20;;;;;;5018065;28;20057;-49
2021/11/19 03:40:59;;;;;;;4.53;3.30;;;9.30;95.20;;;;;;5033169;28;20109;-49
2021/11/19 03:43:33;;;;;;;9.07;3.85;;;9.30;95.20;;;;;;5023132;28;20037;-48
2021/11/19 03:46:05;;;;;;;5.85;3.92;;;9.30;95.20;;;;;;5033012;28;20369;-48
2021/11/19 03:48:30;;;;;;;6.85;3.70;;;9.30;95.20;;;;;;5033626;28;20029;-49
2021/11/19 03:51:06;;;;;;;11.40;4.55;;;9.30;95.20;;;;;;5033063;28;20029;-48
2021/11/19 03:53:32;;;;;;;7.20;3.78;;;9.30;95.20;;;;;;5032901;28;20125;-48
2021/11/19 03:55:59;;;;;;;9.00;3.78;;;9.30;95.10;;;;;;5032831;28;20449;-48
2021/11/19 03:58:28;;;;;;;10.20;4.13;;;9.30;95.10;;;;;;5033154;28;20042;-49
2021/11/19 04:01:07;;;;;;;9.27;4.15;;;9.30;95.10;;;;;;5033143;28;20348;-48
2021/11/19 04:03:33;;;;;;;10.68;4.78;;;9.30;95.10;;;;;;5033659;28;20065;-49
2021/11/19 04:05:59;;;;;;;10.43;4.40;;;9.30;95.10;;;;;;5032197;28;20103;-48
2021/11/19 04:08:25;;;;;;;7.85;4.07;;;9.30;95.10;;;;;;5032069;28;20053;-49
2021/11/19 04:10:52;;;;;;;10.02;4.05;;;9.30;95.10;;;;;;5033058;28;20034;-48
2021/11/19 04:13:18;;;;;;;11.90;4.95;;;9.30;95.10;;;;;;5033075;28;20026;-48
2021/11/19 04:15:52;;;;;;;9.02;4.22;;;9.30;95.10;;;;;;5028153;28;20349;-49
2021/11/19 04:18:18;;;;;;;8.07;3.78;;;9.30;95.10;;;;;;5032895;28;20051;-49
2021/11/19 04:20:44;;;;;;;11.13;5.25;;;9.30;95.10;;;;;;5033223;28;20064;-49
2021/11/19 04:23:11;;;;;;;8.23;4.63;;;9.30;95.10;;;;;;5032711;28;20087;-49
2021/11/19 04:25:38;;;;;;;11.98;4.97;;;9.30;95.10;;;;;;5031164;28;20026;-48
2021/11/19 04:28:04;;;;;;;11.10;5.63;;;9.30;95.10;;;;;;5033148;28;20104;-50
2021/11/19 04:30:37;;;;;;;8.45;4.38;;;9.30;95.10;;;;;;5033280;28;20108;-49
2021/11/19 04:33:04;;;;;;;10.98;5.40;;;9.30;95.10;;;;;;5031345;28;20032;-49
2021/11/19 04:35:30;;;;;;;9.65;4.57;;;9.30;95.10;;;;;;5032154;28;20029;-49
2021/11/19 04:37:57;;;;;;;10.27;5.53;;;9.30;95.10;;;;;;5012775;28;20034;-49
2021/11/19 04:40:24;;;;;;;13.20;5.57;;;9.30;95.10;;;;;;5027566;28;20210;-49
2021/11/19 04:42:50;;;;;;;9.05;4.63;;;9.30;95.10;;;;;;5030605;28;20025;-49
2021/11/19 04:45:19;;;;;;;13.10;4.75;;;9.30;95.10;;;;;;5032066;28;20022;-49
2021/11/19 04:47:45;;;;;;;10.77;4.43;;;9.30;95.00;;;;;;5032471;28;20026;-48
2021/11/19 04:50:13;;;;;;;10.07;4.65;;;9.30;95.00;;;;;;5032220;28;20029;-49
2021/11/19 04:52:39;;;;;;;7.43;4.05;;;9.30;95.00;;;;;;5020741;28;20265;-48
2021/11/19 04:55:07;;;;;;;6.05;3.65;;;9.30;95.00;;;;;;5022876;28;20033;-49
2021/11/19 04:57:33;;;;;;;7.32;4.35;;;9.30;95.00;;;;;;5032425;28;20021;-49
2021/11/19 04:59:59;;;;;;;8.85;3.97;;;9.30;95.00;;;;;;5031723;28;20068;-48
2021/11/19 05:02:27;;;;;;;6.65;3.83;;;9.30;95.00;;;;;;5031958;28;20103;-49
2021/11/19 05:04:53;;;;;;;8.10;4.18;;;9.30;95.00;;;;;;5032010;28;20330;-49
2021/11/19 05:07:20;;;;;;;10.85;4.60;;;9.30;94.90;;;;;;5031439;28;20471;-48
2021/11/19 05:09:45;;;;;;;7.00;3.75;;;9.30;94.90;;;;;;5030617;28;20364;-48
2021/11/19 05:12:26;;;;;;;7.47;4.10;;;9.30;95.00;;;;;;5031812;28;20028;-48
2021/11/19 05:14:52;;;;;;;12.63;4.70;;;9.30;95.00;;;;;;5031994;28;20352;-49
2021/11/19 05:17:22;;;;;;;9.57;3.42;;;9.30;94.90;;;;;;5031194;28;20041;-49
2021/11/19 05:19:48;;;;;;;6.93;3.35;;;9.30;94.90;;;;;;5031802;28;20052;-48
2021/11/19 05:22:14;;;;;;;8.70;3.75;;;9.30;94.90;;;;;;5031981;28;20037;-49
2021/11/19 05:24:40;;;;;;;7.95;3.75;;;9.30;95.00;;;;;;5024058;28;20136;-49
2021/11/19 05:27:06;;;;;;;7.15;3.53;;;9.30;94.90;;;;;;5010991;28;20022;-49
2021/11/19 05:29:32;;;;;;;7.63;4.15;;;9.30;94.90;;;;;;5012195;28;20045;-49
2021/11/19 05:31:58;;;;;;;9.10;4.20;;;9.30;94.90;;;;;;5011915;28;20380;-49
2021/11/19 05:34:25;;;;;;;8.10;3.65;;;9.30;94.90;;;;;;5011511;28;20484;-49
2021/11/19 05:36:52;;;;;;;8.63;4.07;;;9.30;94.90;;;;;;5011864;28;20033;-48
2021/11/19 05:39:18;;;;;;;4.72;2.85;;;9.30;94.90;;;;;;5014867;28;20968;-49
2021/11/19 05:41:44;;;;;;;6.40;2.92;;;9.30;94.90;;;;;;5031196;28;20384;-48
2021/11/19 05:44:10;;;;;;;7.88;3.72;;;9.30;94.90;;;;;;5031197;28;20037;-48
2021/11/19 05:46:40;;;;;;;6.63;3.03;;;9.30;94.90;;;;;;5028814;28;20463;-49
2021/11/19 05:49:12;;;;;;;7.10;3.42;;;9.30;94.90;;;;;;5031330;28;20029;-49
2021/11/19 05:51:39;;;;;;;4.05;3.00;;;9.30;94.80;;;;;;5031574;28;20028;-49
2021/11/19 05:54:08;;;;;;;4.22;2.88;;;9.30;94.90;;;;;;5031084;28;20052;-48
2021/11/19 05:56:35;;;;;;;4.72;3.00;;;9.30;94.80;;;;;;5010212;28;20473;-48
2021/11/19 05:59:00;;;;;;;6.15;3.40;;;9.30;94.80;;;;;;5010600;28;20488;-49
2021/11/19 06:01:27;;;;;;;7.45;3.80;;;9.30;94.80;;;;;;5011491;28;20033;-49
2021/11/19 06:03:53;;;;;;;6.35;3.30;;;9.30;94.80;;;;;;5011534;28;20033;-48
2021/11/19 06:06:20;;;;;;;7.57;3.47;;;9.30;94.80;;;;;;5010079;28;20675;-48
2021/11/19 06:08:46;;;;;;;8.23;4.10;;;9.30;94.90;;;;;;5009981;28;20057;-48
2021/11/19 06:11:23;;;;;;;8.68;4.20;;;9.30;94.40;;;;;;5026318;28;20021;-48
2021/11/19 06:13:55;;;;;;;6.88;3.55;;;9.30;94.40;;;;;;5030967;28;20025;-48
2021/11/19 06:16:36;;;;;;;7.85;3.70;;;9.30;94.40;;;;;;5030462;28;20364;-48
2021/11/19 06:19:06;;;;;;;3.80;2.88;;;9.30;94.40;;;;;;5030913;28;20022;-47
2021/11/19 06:21:47;;;;;;;8.27;4.00;;;9.30;94.40;;;;;;5030695;28;20112;-47
2021/11/19 06:24:16;;;;;;;6.88;3.90;;;9.30;94.40;;;;;;5030413;28;20037;-48
2021/11/19 06:26:44;;;;;;;8.38;3.63;;;9.30;94.40;;;;;;5010123;28;20236;-47
2021/11/19 06:29:10;;;;;;;4.72;3.70;;;9.30;94.40;;;;;;5010845;28;20461;-47
2021/11/19 06:31:39;;;;;;;13.18;4.95;;;9.30;94.40;;;;;;5010242;28;20026;-47
2021/11/19 06:34:05;;;;;;;7.78;3.88;;;9.30;94.40;;;;;;5010753;28;20034;-47
2021/11/19 06:36:31;;;;;;;8.70;3.60;;;9.30;94.40;;;;;;5010466;28;20156;-47
2021/11/19 06:38:59;;;;;;;7.43;4.13;;;9.30;94.40;;;;;;5022139;28;20527;-48
2021/11/19 06:41:26;;;;;;;8.20;4.20;;;9.30;94.40;;;;;;5029467;28;20086;-47
2021/11/19 06:43:52;;;;;;;7.45;3.90;;;9.30;94.40;;;;;;5030372;28;20048;-47
2021/11/19 06:46:19;;;;;;;7.63;3.17;;;9.30;94.40;;;;;;5029788;28;20021;-47
2021/11/19 06:48:45;;;;;;;8.02;3.70;;;9.30;94.40;;;;;;5030611;28;20029;-47
2021/11/19 06:51:11;;;;;;;9.15;3.88;;;9.30;94.40;;;;;;5030633;28;20029;-47
2021/11/19 06:53:38;;;;;;;7.55;3.97;;;9.30;94.40;;;;;;5030774;28;20025;-48
2021/11/19 06:56:04;;;;;;;7.97;3.50;;;9.30;94.40;;;;;;5028327;28;20077;-47
2021/11/19 06:58:30;;;;;;;7.53;3.42;;;9.30;94.40;;;;;;5030451;28;20464;-48
2021/11/19 07:00:57;;;;;;;6.88;3.42;;;9.30;94.40;;;;;;5030586;28;20395;-48
2021/11/19 07:03:24;;;;;;;8.88;4.18;;;9.30;94.40;;;;;;5030007;28;20416;-47
2021/11/19 07:05:50;;;;;;;5.45;3.45;;;9.30;94.40;;;;;;5029508;28;20018;-47
2021/11/19 07:08:15;;;;;;;8.88;4.40;;;9.30;94.30;;;;;;5030672;28;20064;-48
2021/11/19 07:10:44;;;;;;;8.45;4.38;;;9.30;94.30;;;;;;5029080;28;20076;-47
2021/11/19 07:13:11;;;;;;;10.20;4.38;;;9.30;94.30;;;;;;5026087;28;20040;-48
2021/11/19 07:15:37;;;;;;;6.60;4.05;;;9.30;94.40;;;;;;5029364;28;20021;-47
2021/11/19 07:18:04;;;;;;;7.68;3.72;;;9.30;94.40;;;;;;5030640;28;20519;-47
2021/11/19 07:20:31;;;;;;;4.82;3.50;;;9.40;94.40;;;;;;5034272;28;20148;-47
2021/11/19 07:22:58;;;;;;;3.70;2.75;;;9.30;94.40;;;;;;5034118;28;20034;-48
2021/11/19 07:25:26;;;;;;;5.85;3.15;;;9.30;94.40;;;;;;5031665;28;20393;-47
2021/11/19 07:27:56;;;;;;;7.43;3.10;;;9.30;94.40;;;;;;5034216;28;20030;-47
2021/11/19 07:30:25;;;;;;;9.20;3.37;;;9.30;94.40;;;;;;5033611;28;20036;-47
2021/11/19 07:32:51;;;;;;;6.20;3.70;;;9.30;94.40;;;;;;5033678;28;20137;-47
2021/11/19 07:35:17;;;;;;;12.23;4.25;;;9.30;94.40;;;;;;5032987;28;20121;-47
2021/11/19 07:37:42;;;;;;;11.52;4.03;;;9.30;94.40;;;;;;5033889;28;20057;-47
2021/11/19 07:40:11;;;;;;;9.82;4.22;;;9.30;94.40;;;;;;5031289;28;20044;-47
2021/11/19 07:42:39;;;;;;;8.52;3.78;;;9.30;94.40;;;;;;5013767;28;20034;-47
2021/11/19 07:45:07;;;;;;;5.80;3.17;;;9.30;94.40;;;;;;5013322;28;20049;-47
2021/11/19 07:47:32;;;;;;;8.85;3.45;;;9.30;94.40;;;;;;5032527;28;20022;-47
2021/11/19 07:49:58;;;;;;;8.45;3.17;;;9.30;94.50;;;;;;5033453;28;20018;-47
2021/11/19 07:52:24;;;;;;;6.03;3.58;;;9.30;94.50;;;;;;5033407;28;20357;-48
2021/11/19 07:54:50;;;;;;;9.65;3.25;;;9.30;94.40;;;;;;5033259;28;20103;-47
2021/11/19 07:57:16;;;;;;;6.75;3.30;;;9.40;94.50;;;;;;5031449;28;20018;-47
2021/11/19 07:59:42;;;;;;;5.88;3.08;;;9.40;94.50;;;;;;5032977;28;20187;-48
2021/11/19 08:02:08;;;;;;;8.55;3.15;;;9.30;94.50;;;;;;5033387;28;20059;-48
2021/11/19 08:04:35;;;;;;;4.90;2.83;;;9.40;94.50;;;;;;5033758;28;20033;-48
2021/11/19 08:07:03;;;;;;;4.63;3.10;;;9.40;94.50;;;;;;5032123;28;20087;-48
2021/11/19 08:09:29;;;;;;;7.05;3.70;;;9.40;94.50;;;;;;5033092;28;20357;-47
2021/11/19 08:11:55;;;;;;;5.75;2.92;;;9.40;94.50;;;;;;5031924;28;20030;-48
2021/11/19 08:14:21;;;;;;;7.28;3.15;;;9.40;94.50;;;;;;5017250;28;20544;-47
2021/11/19 08:16:51;;;;;;;8.07;3.20;;;9.40;94.60;;;;;;5012492;28;20113;-47
2021/11/19 08:19:23;;;;;;;6.30;3.53;;;9.40;94.60;;;;;;5013355;28;20022;-48
2021/11/19 08:21:48;;;;;;;7.18;3.80;;;9.40;94.70;;;;;;5012946;28;20453;-48
2021/11/19 08:24:15;;;;;;;6.35;3.03;;;9.40;94.70;;;;;;5012909;28;20125;-47
2021/11/19 08:26:48;;;;;;;7.88;3.63;;;9.40;94.70;;;;;;5021625;28;20030;-47
2021/11/19 08:29:21;;;;;;;4.85;2.97;;;9.40;94.70;;;;;;5024134;28;20030;-47
2021/11/19 08:31:47;;;;;;;8.75;2.85;;;9.40;94.70;;;;;;5021461;28;20018;-48
2021/11/19 08:34:13;;;;;;;5.30;3.55;;;9.40;94.80;;;;;;5012777;28;20314;-48
2021/11/19 08:36:39;;;;;;;5.30;3.25;;;9.40;94.80;;;;;;5011741;28;20363;-48
2021/11/19 08:39:07;;;;;;;6.88;3.35;;;9.40;94.80;;;;;;5012694;28;20026;-47
2021/11/19 08:41:34;;;;;;;5.85;3.17;;;9.40;94.80;;;;;;5020143;28;20460;-47
2021/11/19 08:44:00;;;;;;;6.13;3.50;;;9.40;94.90;;;;;;5032046;28;20041;-48
2021/11/19 08:46:34;;;;;;;5.72;3.20;;;9.40;94.80;;;;;;5027088;28;20345;-48
2021/11/19 08:49:03;;;;;;;7.50;3.80;;;9.50;94.80;;;;;;5032815;28;20025;-48
2021/11/19 08:51:30;;;;;;;8.07;4.20;;;9.50;94.80;;;;;;5032119;28;20030;-47
2021/11/19 08:54:00;;;;;;;10.02;3.63;;;9.50;94.90;;;;;;5032504;28;20337;-48
2021/11/19 08:56:27;;;;;;;8.77;3.15;;;9.50;94.90;;;;;;5030698;28;20033;-48
2021/11/19 08:58:53;;;;;;;6.72;3.47;;;9.50;94.80;;;;;;5032071;28;20121;-48
2021/11/19 09:01:21;;;;;;;4.28;2.60;;;9.50;94.90;;;;;;5031922;28;20634;-48
2021/11/19 09:03:48;;;;;;;9.32;3.22;;;9.50;94.90;;;;;;5032519;28;20040;-48
2021/11/19 09:06:16;;;;;;;6.85;3.88;;;9.50;95.00;;;;;;5030499;28;20091;-48
2021/11/19 09:08:43;;;;;;;6.72;3.50;;;9.50;95.30;;;;;;5032180;28;20105;-48
2021/11/19 09:11:11;;;;;;;8.35;3.25;;;9.50;95.00;;;;;;5030943;28;20105;-48
2021/11/19 09:13:38;;;;;;;10.43;3.83;;;9.50;95.00;;;;;;5031986;28;20028;-48
2021/11/19 09:16:07;;;;;;;4.43;3.08;;;9.60;95.20;;;;;;5030350;28;20107;-48
2021/11/19 09:18:41;;;;;;;5.80;3.72;;;9.50;95.40;;;;;;5031686;28;20033;-48
2021/11/19 09:21:14;;;;;;;7.55;4.18;;;9.50;95.40;;;;;;5031957;28;20025;-48
2021/11/19 09:23:55;;;;;;;5.97;3.08;;;9.50;95.60;;;;;;5031477;28;20040;-47
2021/11/19 09:26:32;;;;;;;8.20;3.95;;;9.50;95.70;;;;;;5026380;28;20061;-48
2021/11/19 09:29:00;;;;;;;11.40;4.10;;;9.50;95.70;;;;;;5011464;28;20026;-48
2021/11/19 09:31:26;;;;;;;4.75;2.80;;;9.50;95.80;;;;;;5012059;28;20560;-48
2021/11/19 09:33:52;;;;;;;6.28;2.80;;;9.50;95.90;;;;;;5011892;28;20088;-48
2021/11/19 09:36:19;;;;;;;4.38;2.58;;;9.60;95.90;;;;;;5010900;28;20449;-48
2021/11/19 09:38:46;;;;;;;10.70;5.28;;;9.60;95.60;;;;;;5011829;28;20032;-48
2021/11/19 09:41:37;;;;;;;6.07;2.83;;;9.60;95.80;;;;;;5012053;28;20022;-48
2021/11/19 09:44:17;;;;;;;9.32;3.08;;;9.70;95.70;;;;;;5031575;28;20111;-47
2021/11/19 09:47:13;;;;;;;13.57;5.95;;;9.60;95.70;;;;;;5030716;28;20017;-47
2021/11/19 09:49:38;;;;;;;8.90;3.60;;;9.60;96.00;;;;;;5031095;28;20029;-47
2021/11/19 09:52:13;;;;;;;11.45;5.35;;;9.60;95.80;;;;;;5030977;28;20075;-47
2021/11/19 09:54:47;;;;;;;14.10;4.60;;;9.70;95.80;;;;;;5031431;28;20026;-48
2021/11/19 09:57:34;;;;;;;17.10;7.22;;;9.70;95.70;;;;;;5029349;28;20037;-48
2021/11/19 10:00:31;;;;;;;15.93;6.03;;;9.70;95.70;;;;;;5031129;28;20037;-48
2021/11/19 10:03:53;;;;;;;11.52;5.20;;;9.70;95.70;;;;;;5030779;28;20030;-48
2021/11/19 10:06:37;;;;;;;10.77;4.85;;;9.70;95.80;;;;;;4921300;29;20034;-48
2021/11/19 10:09:18;;;;;;;14.90;6.55;;;9.70;95.80;;;;;;4912284;29;20032;-48
2021/11/19 10:11:52;;;;;;;20.60;6.32;;;9.70;95.80;;;;;;4914826;29;20038;-47
2021/11/19 10:14:47;;;;;;;15.98;6.25;;;9.70;95.90;;;;;;4930759;29;20059;-47
2021/11/19 10:17:33;;;;;;;12.57;5.25;;;9.70;95.90;;;;;;4930048;29;20066;-48
2021/11/19 10:20:20;;;;;;;23.83;5.43;;;9.70;96.00;;;;;;4930966;29;20442;-48
2021/11/19 10:22:57;;;;;;;17.08;5.55;;;9.70;95.80;;;;;;4930261;29;20359;-48
2021/11/19 10:25:32;;;;;;;19.20;6.65;;;9.70;95.90;;;;;;4929992;29;20063;-47
2021/11/19 10:28:04;;;;;;;13.52;6.93;;;9.70;95.90;;;;;;4918064;29;20028;-47
2021/11/19 10:30:46;;;;;;;9.50;4.45;;;9.80;96.00;;;;;;4911817;29;20040;-48
2021/11/19 10:33:31;;;;;;;12.52;4.85;;;9.80;95.80;;;;;;4911184;29;20039;-48
2021/11/19 10:36:35;;;;;;;12.98;5.55;;;9.70;95.80;;;;;;4925826;28;20037;-47
2021/11/19 10:39:31;;;;;;;16.38;5.38;;;9.80;95.80;;;;;;5011184;28;20032;-48
2021/11/19 10:42:21;;;;;;;13.30;5.55;;;9.80;95.50;;;;;;5013533;28;20597;-47
2021/11/19 10:45:23;;;;;;;14.15;6.25;;;9.80;95.70;;;;;;5030207;28;20113;-47
2021/11/19 10:48:07;;;;;;;18.83;7.25;;;9.80;95.60;;;;;;5030372;28;20491;-47
2021/11/19 10:50:36;;;;;;;17.95;8.70;;;9.80;95.50;;;;;;5030729;28;20120;-48
2021/11/19 10:53:24;;;;;;;30.02;10.55;;;9.80;95.50;;;;;;5030722;28;20103;-48
2021/11/19 10:56:37;;;;;;;23.95;7.32;;;9.80;95.50;;;;;;5033490;28;20456;-48
2021/11/19 10:59:23;;;;;;;16.50;7.28;;;9.80;95.50;;;;;;4970161;28;20064;-48
2021/11/19 11:01:59;;;;;;;19.23;7.03;;;9.80;95.40;;;;;;5014649;28;20033;-48
2021/11/19 11:04:41;;;;;;;17.58;8.20;;;9.80;95.40;;;;;;5014302;28;20034;-48
2021/11/19 11:07:15;;;;;;;20.42;9.05;;;9.80;95.30;;;;;;5013602;28;20018;-48
2021/11/19 11:09:54;;;;;;;19.70;8.25;;;9.80;95.40;;;;;;5014529;28;20457;-48
2021/11/19 11:12:23;;;;;;;16.58;6.75;;;9.80;95.50;;;;;;5018452;28;20104;-47
2021/11/19 11:15:19;;;;;;;16.45;6.88;;;9.90;95.50;;;;;;5033627;28;20044;-47
2021/11/19 11:18:21;;;;;;;21.85;9.02;;;9.80;95.60;;;;;;5034195;28;20511;-47
2021/11/19 11:20:53;;;;;;;16.05;8.48;;;9.80;95.40;;;;;;5029100;28;20049;-47
2021/11/19 11:23:43;;;;;;;19.05;8.68;;;9.90;95.70;;;;;;5024085;28;20042;-48
2021/11/19 11:26:11;;;;;;;;;;;9.90;95.70;;;;;;5014072;28;20022;-47
2021/11/19 11:28:51;;;;;;;26.65;10.13;;;9.90;95.70;;;;;;5027453;28;19912;-47
2021/11/19 11:31:34;;;;;;;26.50;9.38;;;9.80;95.80;;;;;;5034015;28;20022;-47
2021/11/19 11:34:13;;;;;;;26.88;11.65;;;9.80;95.80;;;;;;5033191;28;20120;-48
2021/11/19 11:37:05;;;;;;;25.73;9.70;;;9.90;95.70;;;;;;5032692;28;20025;-47
2021/11/19 11:39:56;;;;;;;22.00;6.93;;;9.90;95.90;;;;;;5033750;28;20040;-48
2021/11/19 11:42:25;;;;;;;30.27;11.73;;;9.90;95.90;;;;;;4985501;28;20034;-48
2021/11/19 11:44:54;;;;;;;17.42;8.90;;;9.90;95.90;;;;;;5013636;28;20070;-48
2021/11/19 11:47:36;;;;;;;14.68;5.63;;;9.80;95.90;;;;;;5024351;28;20017;-48
2021/11/19 11:50:37;;;;;;;23.00;7.70;;;9.90;95.60;;;;;;5033477;28;20032;-48
2021/11/19 11:53:11;;;;;;;20.95;8.80;;;9.90;95.50;;;;;;5033085;28;20507;-48
2021/11/19 11:55:42;;;;;;;23.10;10.27;;;9.90;95.80;;;;;;5032729;28;20083;-48
2021/11/19 11:58:17;;;;;;;21.52;9.05;;;9.90;95.70;;;;;;5031622;28;20038;-48
2021/11/19 12:00:59;;;;;;;21.35;8.93;;;9.90;95.70;;;;;;5033254;28;20022;-48
2021/11/19 12:03:54;;;;;;;18.92;9.38;;;9.90;95.80;;;;;;5032800;28;20037;-48
2021/11/19 12:06:43;;;;;;;29.02;9.85;;;9.90;95.90;;;;;;5020149;28;20030;-48
2021/11/19 12:09:32;;;;;;;22.63;9.90;;;9.90;96.00;;;;;;5021696;28;20075;-48
2021/11/19 12:12:23;;;;;;;24.83;8.75;;;9.90;95.80;;;;;;5033231;28;20025;-47
2021/11/19 12:15:01;;;;;;;22.52;9.38;;;9.90;95.90;;;;;;5013345;28;20116;-48
2021/11/19 12:17:58;;;;;;;15.20;7.22;;;9.90;95.90;;;;;;5012988;28;20097;-48
2021/11/19 12:20:54;;;;;;;19.02;8.15;;;9.90;96.00;;;;;;4999788;28;20041;-48
2021/11/19 12:23:42;;;;;;;19.30;8.05;;;9.90;95.90;;;;;;5012920;28;20026;-48
2021/11/19 12:26:10;;;;;;;27.77;9.82;;;9.90;95.90;;;;;;5011873;28;20487;-48
2021/11/19 12:28:43;;;;;;;22.95;9.77;;;9.90;95.90;;;;;;5016358;28;20329;-48
2021/11/19 12:31:10;;;;;;;18.65;8.00;;;9.90;95.90;;;;;;5032979;28;20112;-47
2021/11/19 12:33:45;;;;;;;13.75;7.75;;;9.90;96.00;;;;;;5012452;28;20030;-48
2021/11/19 12:36:14;;;;;;;14.73;6.85;;;9.90;96.00;;;;;;5012083;28;20021;-48
2021/11/19 12:38:44;;;;;;;11.98;7.00;;;10.00;95.90;;;;;;5012918;28;20037;-48
2021/11/19 12:41:40;;;;;;;15.38;6.90;;;10.00;95.90;;;;;;5014245;28;20041;-48
2021/11/19 12:44:26;;;;;;;26.15;9.85;;;9.90;96.10;;;;;;5014869;28;20465;-48
2021/11/19 12:47:29;;;;;;;15.55;8.50;;;9.90;96.10;;;;;;5021187;28;20075;-48
2021/11/19 12:50:16;;;;;;;15.00;6.88;;;10.00;96.00;;;;;;5025498;28;20420;-48
2021/11/19 12:53:16;;;;;;;20.10;8.98;;;10.00;96.00;;;;;;5032209;28;20029;-48
2021/11/19 12:55:57;;;;;;;;;;;9.90;96.10;;;;;;5018827;28;20037;-48
2021/11/19 12:58:32;;;;;;;16.30;7.55;;;10.00;96.00;;;;;;5030941;28;19913;-48
2021/11/19 13:01:22;;;;;;;17.17;7.65;;;9.90;96.00;;;;;;5025513;28;20329;-47
2021/11/19 13:03:47;;;;;;;24.73;9.10;;;10.00;96.10;;;;;;5011665;28;20046;-47
2021/11/19 13:06:39;;;;;;;20.70;7.03;;;10.00;96.00;;;;;;5011659;28;20113;-48
2021/11/19 13:09:13;;;;;;;30.75;10.13;;;10.00;96.00;;;;;;5012301;28;20037;-48
2021/11/19 13:11:58;;;;;;;19.67;8.93;;;10.00;96.00;;;;;;5012441;28;20543;-48
2021/11/19 13:14:38;;;;;;;14.55;6.70;;;10.00;96.00;;;;;;5024144;28;20045;-47
2021/11/19 13:17:14;;;;;;;20.20;7.65;;;10.00;96.00;;;;;;5030883;28;20022;-48
2021/11/19 13:19:40;;;;;;;21.23;8.45;;;10.00;96.00;;;;;;5031839;28;20091;-48